Time;durP1;ratioP1;P1;durP2;ratioP2;P2;SDS_P1;SDS_P2;PMS_P1;PMS_P2;Temp;Humidity;BMP_temperature;BMP_pressure;BME280_temperature;BME280_humidity;BME280_pressure;Samples;Min_cycle;Max_cycle;Signal;HPM_P1;HPM_P2
2021/11/13 00:01:32;;;;;;;;;;;;;;;;;;5112216;28;19908;-76
2021/11/13 00:03:58;;;;;;;;;;;;;;;;;;5113309;28;19901;-75
2021/11/13 00:06:23;;;;;;;;;;;;;;;;;;5112709;28;19904;-76
2021/11/13 00:08:49;;;;;;;;;;;;;;;;;;5111512;28;19954;-76
2021/11/13 00:11:14;;;;;;;;;;;;;;;;;;5111129;28;19907;-76
2021/11/13 00:13:39;;;;;;;;;;;;;;;;;;5114205;28;19915;-77
2021/11/13 00:16:05;;;;;;;;;;;;;;;;;;5113155;28;19911;-76
2021/11/13 00:18:34;;;;;;;;;;;;;;;;;;5112887;28;19908;-76
2021/11/13 00:21:00;;;;;;;;;;;;;;;;;;5113031;28;19963;-76
2021/11/13 00:23:25;;;;;;;;;;;;;;;;;;5110306;28;20020;-78
2021/11/13 00:25:50;;;;;;;;;;;;;;;;;;5112847;28;20158;-76
2021/11/13 00:28:18;;;;;;;;;;;;;;;;;;5110049;28;19932;-76
2021/11/13 00:30:43;;;;;;;;;;;;;;;;;;5112340;28;19919;-75
2021/11/13 00:33:11;;;;;;;;;;;;;;;;;;5111665;28;19907;-75
2021/11/13 00:35:36;;;;;;;;;;;;;;;;;;5111919;28;19900;-76
2021/11/13 00:38:01;;;;;;;;;;;;;;;;;;5111117;28;19986;-76
2021/11/13 00:40:27;;;;;;;;;;;;;;;;;;5111126;28;19923;-77
2021/11/13 00:42:52;;;;;;;;;;;;;;;;;;5112505;28;19926;-76
2021/11/13 00:45:17;;;;;;;;;;;;;;;;;;5111385;28;19916;-76
2021/11/13 00:47:42;;;;;;;;;;;;;;;;;;5110868;28;19909;-76
2021/11/13 00:50:10;;;;;;;;;;;;;;;;;;5093759;28;19912;-76
2021/11/13 00:52:35;;;;;;;;;;;;;;;;;;5094112;28;19908;-77
2021/11/13 00:55:01;;;;;;;;;;;;;;;;;;5110427;28;19911;-78
2021/11/13 00:57:26;;;;;;;;;;;;;;;;;;5111259;28;19912;-78
2021/11/13 00:59:51;;;;;;;;;;;;;;;;;;5111405;28;19900;-77
2021/11/13 01:02:16;;;;;;;;;;;;;;;;;;5106524;28;19900;-76
2021/11/13 01:04:42;;;;;;;;;;;;;;;;;;5109213;28;19901;-78
2021/11/13 01:07:08;;;;;;;;;;;;;;;;;;5111280;28;19897;-77
2021/11/13 01:09:33;;;;;;;;;;;;;;;;;;5110202;28;19967;-77
2021/11/13 01:11:58;;;;;;;;;;;;;;;;;;5110172;28;19939;-76
2021/11/13 01:14:23;;;;;;;;;;;;;;;;;;5112384;28;19908;-76
2021/11/13 01:16:49;;;;;;;;;;;;;;;;;;5111907;28;20110;-76
2021/11/13 01:19:14;;;;;;;;;;;;;;;;;;5111444;28;19909;-76
2021/11/13 01:21:39;;;;;;;;;;;;;;;;;;5117196;28;19907;-77
2021/11/13 01:24:05;;;;;;;;;;;;;;;;;;5114623;28;19908;-76
2021/11/13 01:26:30;;;;;;;;;;;;;;;;;;5115077;28;19923;-77
2021/11/13 01:28:55;;;;;;;;;;;;;;;;;;5114475;28;19901;-76
2021/11/13 01:31:20;;;;;;;;;;;;;;;;;;5115206;28;19915;-76
2021/11/13 01:33:45;;;;;;;;;;;;;;;;;;5114952;28;19963;-77
2021/11/13 01:36:11;;;;;;;;;;;;;;;;;;5114900;28;19915;-76
2021/11/13 01:38:37;;;;;;;;;;;;;;;;;;5115392;28;19919;-76
2021/11/13 01:41:02;;;;;;;;;;;;;;;;;;5114535;28;20204;-76
2021/11/13 01:43:27;;;;;;;;;;;;;;;;;;5115047;28;19908;-76
2021/11/13 01:45:52;;;;;;;;;;;;;;;;;;5114765;28;19914;-76
2021/11/13 01:48:18;;;;;;;;;;;;;;;;;;5114784;28;20112;-77
2021/11/13 01:50:43;;;;;;;;;;;;;;;;;;5114640;28;19932;-76
2021/11/13 01:53:08;;;;;;;;;;;;;;;;;;5114678;28;19964;-77
2021/11/13 01:55:36;;;;;;;;;;;;;;;;;;5115042;28;19900;-76
2021/11/13 01:58:02;;;;;;;;;;;;;;;;;;5113903;28;19939;-76
2021/11/13 02:00:28;;;;;;;;;;;;;;;;;;5114424;28;19919;-76
2021/11/13 02:02:53;;;;;;;;;;;;;;;;;;5114014;28;19931;-77
2021/11/13 02:05:19;;;;;;;;;;;;;;;;;;5112866;28;19968;-76
2021/11/13 02:07:44;;;;;;;;;;;;;;;;;;5113933;28;19946;-76
2021/11/13 02:10:09;;;;;;;;;;;;;;;;;;5111727;28;19940;-76
2021/11/13 02:12:35;;;;;;;;;;;;;;;;;;5114926;28;19900;-76
2021/11/13 02:15:00;;;;;;;;;;;;;;;;;;5113944;28;20027;-76
2021/11/13 02:17:25;;;;;;;;;;;;;;;;;;5113791;28;19912;-76
2021/11/13 02:19:50;;;;;;;;;;;;;;;;;;5114110;28;19960;-76
2021/11/13 02:22:16;;;;;;;;;;;;;;;;;;5114892;28;20343;-76
2021/11/13 02:24:41;;;;;;;;;;;;;;;;;;5114043;28;19919;-76
2021/11/13 02:27:06;;;;;;;;;;;;;;;;;;5114754;28;19900;-76
2021/11/13 02:29:31;;;;;;;;;;;;;;;;;;5129916;27;19934;-77
2021/11/13 02:31:57;;;;;;;;;;;;;;;;;;5112472;28;19900;-76
2021/11/13 02:34:24;;;;;;;;;;;;;;;;;;5111667;28;20251;-77
2021/11/13 02:36:51;;;;;;;;;;;;;;;;;;5114075;28;19946;-76
2021/11/13 02:39:16;;;;;;;;;;;;;;;;;;5113748;28;19900;-77
2021/11/13 02:41:47;;;;;;;;;;;;;;;;;;5113724;28;19909;-76
2021/11/13 02:44:12;;;;;;;;;;;;;;;;;;5128685;27;20213;-76
2021/11/13 02:46:37;;;;;;;;;;;;;;;;;;5135746;27;19908;-76
2021/11/13 02:49:03;;;;;;;;;;;;;;;;;;5113955;28;19915;-77
2021/11/13 02:51:28;;;;;;;;;;;;;;;;;;5114160;28;19900;-76
2021/11/13 02:53:53;;;;;;;;;;;;;;;;;;5113850;28;19904;-76
2021/11/13 02:56:18;;;;;;;;;;;;;;;;;;5114042;28;19983;-77
2021/11/13 02:58:44;;;;;;;;;;;;;;;;;;5113669;28;19940;-76
2021/11/13 03:01:09;;;;;;;;;;;;;;;;;;5097315;28;19961;-76
2021/11/13 03:03:34;;;;;;;;;;;;;;;;;;5114650;28;20270;-76
2021/11/13 03:05:59;;;;;;;;;;;;;;;;;;5112709;28;19912;-77
2021/11/13 03:08:25;;;;;;;;;;;;;;;;;;5113790;28;19909;-76
2021/11/13 03:10:50;;;;;;;;;;;;;;;;;;5113339;28;19900;-77
2021/11/13 03:13:15;;;;;;;;;;;;;;;;;;5112697;28;19958;-76
2021/11/13 03:15:40;;;;;;;;;;;;;;;;;;5113686;28;19911;-76
2021/11/13 03:18:06;;;;;;;;;;;;;;;;;;5129368;27;19919;-76
2021/11/13 03:20:31;;;;;;;;;;;;;;;;;;5114147;28;19896;-76
2021/11/13 03:22:56;;;;;;;;;;;;;;;;;;5109225;28;19908;-77
2021/11/13 03:25:21;;;;;;;;;;;;;;;;;;5113997;28;19900;-76
2021/11/13 03:27:47;;;;;;;;;;;;;;;;;;5113480;28;19904;-76
2021/11/13 03:30:12;;;;;;;;;;;;;;;;;;5113469;28;19911;-77
2021/11/13 03:32:38;;;;;;;;;;;;;;;;;;5114205;28;19908;-76
2021/11/13 03:35:03;;;;;;;;;;;;;;;;;;5113955;28;19954;-76
2021/11/13 03:37:29;;;;;;;;;;;;;;;;;;5112692;28;19908;-76
2021/11/13 03:39:54;;;;;;;;;;;;;;;;;;5111213;28;19900;-76
2021/11/13 03:42:19;;;;;;;;;;;;;;;;;;5112324;28;19998;-76
2021/11/13 03:44:46;;;;;;;;;;;;;;;;;;5110754;28;19995;-77
2021/11/13 03:47:11;;;;;;;;;;;;;;;;;;5112842;28;19911;-76
2021/11/13 03:49:36;;;;;;;;;;;;;;;;;;5113764;28;19976;-76
2021/11/13 03:52:01;;;;;;;;;;;;;;;;;;5112587;28;19900;-76
2021/11/13 03:54:28;;;;;;;;;;;;;;;;;;5112957;28;19908;-76
2021/11/13 03:56:54;;;;;;;;;;;;;;;;;;5113188;28;19900;-76
2021/11/13 03:59:23;;;;;;;;;;;;;;;;;;5110975;28;19907;-76
2021/11/13 04:01:48;;;;;;;;;;;;;;;;;;5112575;28;20077;-76
2021/11/13 04:04:13;;;;;;;;;;;;;;;;;;5111722;28;19950;-76
2021/11/13 04:06:38;;;;;;;;;;;;;;;;;;5112568;28;19912;-77
2021/11/13 04:09:03;;;;;;;;;;;;;;;;;;5125403;27;20034;-77
2021/11/13 04:11:29;;;;;;;;;;;;;;;;;;5113248;28;19902;-76
2021/11/13 04:13:54;;;;;;;;;;;;;;;;;;5111090;28;19964;-76
2021/11/13 04:16:19;;;;;;;;;;;;;;;;;;5111474;28;19908;-76
2021/11/13 04:18:44;;;;;;;;;;;;;;;;;;5113267;28;19918;-77
2021/11/13 04:21:10;;;;;;;;;;;;;;;;;;5111324;28;19938;-76
2021/11/13 04:23:37;;;;;;;;;;;;;;;;;;5112447;28;19912;-76
2021/11/13 04:26:02;;;;;;;;;;;;;;;;;;5111955;28;19915;-76
2021/11/13 04:28:27;;;;;;;;;;;;;;;;;;5112066;28;19916;-76
2021/11/13 04:30:52;;;;;;;;;;;;;;;;;;5111944;28;19903;-76
2021/11/13 04:33:18;;;;;;;;;;;;;;;;;;5112255;28;19916;-75
2021/11/13 04:36:01;;;;;;;;;;;;;;;;;;5127460;27;19923;-76
2021/11/13 04:38:26;;;;;;;;;;;;;;;;;;5110411;28;19908;-75
2021/11/13 04:40:51;;;;;;;;;;;;;;;;;;5111427;28;19932;-75
2021/11/13 04:43:17;;;;;;;;;;;;;;;;;;5112784;28;19959;-75
2021/11/13 04:45:42;;;;;;;;;;;;;;;;;;5112040;28;19903;-75
2021/11/13 04:48:07;;;;;;;;;;;;;;;;;;5111356;28;19911;-75
2021/11/13 04:50:33;;;;;;;;;;;;;;;;;;5110875;28;19900;-78
2021/11/13 04:52:58;;;;;;;;;;;;;;;;;;5111931;28;19975;-78
2021/11/13 04:55:24;;;;;;;;;;;;;;;;;;5112246;28;19926;-78
2021/11/13 04:57:52;;;;;;;;;;;;;;;;;;5111324;28;20843;-78
2021/11/13 05:00:17;;;;;;;;;;;;;;;;;;5111193;28;19912;-77
2021/11/13 05:02:43;;;;;;;;;;;;;;;;;;5095323;28;19966;-77
2021/11/13 05:05:08;;;;;;;;;;;;;;;;;;5112371;28;19973;-77
2021/11/13 05:07:33;;;;;;;;;;;;;;;;;;5111937;28;20165;-75
2021/11/13 05:09:58;;;;;;;;;;;;;;;;;;5111709;28;19975;-78
2021/11/13 05:12:23;;;;;;;;;;;;;;;;;;5112604;28;19943;-78
2021/11/13 05:14:50;;;;;;;;;;;;;;;;;;5111802;28;19935;-77
2021/11/13 05:17:16;;;;;;;;;;;;;;;;;;5112416;28;19911;-78
2021/11/13 05:19:42;;;;;;;;;;;;;;;;;;5109589;28;19911;-78
2021/11/13 05:22:07;;;;;;;;;;;;;;;;;;5112788;28;19900;-78
2021/11/13 05:24:32;;;;;;;;;;;;;;;;;;5111517;28;19900;-77
2021/11/13 05:26:57;;;;;;;;;;;;;;;;;;5112577;28;19930;-77
2021/11/13 05:29:23;;;;;;;;;;;;;;;;;;5111671;28;19908;-77
2021/11/13 05:31:48;;;;;;;;;;;;;;;;;;5111998;28;19962;-77
2021/11/13 05:34:13;;;;;;;;;;;;;;;;;;5112747;28;20123;-77
2021/11/13 05:36:39;;;;;;;;;;;;;;;;;;5112206;28;19908;-77
2021/11/13 05:39:04;;;;;;;;;;;;;;;;;;5111974;28;19915;-77
2021/11/13 05:41:29;;;;;;;;;;;;;;;;;;5112105;28;19966;-78
2021/11/13 05:43:54;;;;;;;;;;;;;;;;;;5110630;28;19904;-77
2021/11/13 05:46:19;;;;;;;;;;;;;;;;;;5112346;28;19978;-78
2021/11/13 05:48:45;;;;;;;;;;;;;;;;;;5109563;28;19919;-77
2021/11/13 05:51:10;;;;;;;;;;;;;;;;;;5112237;28;19930;-77
2021/11/13 05:53:35;;;;;;;;;;;;;;;;;;5111366;28;19900;-77
2021/11/13 05:56:01;;;;;;;;;;;;;;;;;;5110834;28;19911;-77
2021/11/13 05:58:26;;;;;;;;;;;;;;;;;;5109676;28;19923;-77
2021/11/13 06:00:51;;;;;;;;;;;;;;;;;;5110855;28;20175;-77
2021/11/13 06:03:16;;;;;;;;;;;;;;;;;;5110217;28;19900;-77
2021/11/13 06:05:43;;;;;;;;;;;;;;;;;;5106871;28;19916;-76
2021/11/13 06:08:08;;;;;;;;;;;;;;;;;;5111819;28;19935;-76
2021/11/13 06:10:33;;;;;;;;;;;;;;;;;;5113739;28;20221;-77
2021/11/13 06:12:58;;;;;;;;;;;;;;;;;;5110017;28;19923;-77
2021/11/13 06:15:24;;;;;;;;;;;;;;;;;;5109976;28;19908;-77
2021/11/13 06:17:49;;;;;;;;;;;;;;;;;;5112954;28;19920;-77
2021/11/13 06:20:14;;;;;;;;;;;;;;;;;;5115365;28;19963;-77
2021/11/13 06:22:39;;;;;;;;;;;;;;;;;;5114916;28;19896;-77
2021/11/13 06:25:05;;;;;;;;;;;;;;;;;;5115387;28;19939;-77
2021/11/13 06:27:30;;;;;;;;;;;;;;;;;;5114744;28;19959;-77
2021/11/13 06:29:55;;;;;;;;;;;;;;;;;;5133477;27;19959;-77
2021/11/13 06:32:20;;;;;;;;;;;;;;;;;;5113867;28;19926;-77
2021/11/13 06:34:45;;;;;;;;;;;;;;;;;;5115568;28;19904;-77
2021/11/13 06:37:11;;;;;;;;;;;;;;;;;;5114169;28;19908;-77
2021/11/13 06:39:36;;;;;;;;;;;;;;;;;;5127367;27;19908;-77
2021/11/13 06:42:01;;;;;;;;;;;;;;;;;;5110485;28;19915;-77
2021/11/13 06:44:26;;;;;;;;;;;;;;;;;;5113182;28;19959;-77
2021/11/13 06:46:52;;;;;;;;;;;;;;;;;;5115307;28;19900;-77
2021/11/13 06:49:17;;;;;;;;;;;;;;;;;;5115397;28;19904;-77
2021/11/13 06:51:42;;;;;;;;;;;;;;;;;;5114249;28;19907;-78
2021/11/13 06:54:09;;;;;;;;;;;;;;;;;;5112491;28;20016;-78
2021/11/13 06:56:34;;;;;;;;;;;;;;;;;;5114860;28;19960;-76
2021/11/13 06:58:59;;;;;;;;;;;;;;;;;;5113284;28;19943;-77
2021/11/13 07:01:25;;;;;;;;;;;;;;;;;;5113590;28;19982;-76
2021/11/13 07:03:50;;;;;;;;;;;;;;;;;;5113195;28;19900;-77
2021/11/13 07:06:15;;;;;;;;;;;;;;;;;;5129475;27;19904;-77
2021/11/13 07:08:40;;;;;;;;;;;;;;;;;;5113921;28;19934;-77
2021/11/13 07:11:06;;;;;;;;;;;;;;;;;;5113619;28;19926;-76
2021/11/13 07:13:31;;;;;;;;;;;;;;;;;;5112025;28;19925;-75
2021/11/13 07:15:56;;;;;;;;;;;;;;;;;;5130725;27;19940;-77
2021/11/13 07:18:21;;;;;;;;;;;;;;;;;;5113704;28;19915;-77
2021/11/13 07:20:46;;;;;;;;;;;;;;;;;;5114783;28;19911;-77
2021/11/13 07:23:12;;;;;;;;;;;;;;;;;;5111412;28;20093;-77
2021/11/13 07:25:38;;;;;;;;;;;;;;;;;;5112828;28;19910;-77
2021/11/13 07:28:05;;;;;;;;;;;;;;;;;;5113117;28;19939;-75
2021/11/13 07:30:38;;;;;;;;;;;;;;;;;;5114358;28;20208;-78
2021/11/13 07:33:04;;;;;;;;;;;;;;;;;;5112020;28;19908;-78
2021/11/13 07:35:29;;;;;;;;;;;;;;;;;;5127947;27;19911;-76
2021/11/13 07:37:54;;;;;;;;;;;;;;;;;;5112413;28;19908;-76
2021/11/13 07:40:19;;;;;;;;;;;;;;;;;;5112106;28;19900;-75
2021/11/13 07:42:45;;;;;;;;;;;;;;;;;;5113783;28;19980;-76
2021/11/13 07:45:10;;;;;;;;;;;;;;;;;;5113087;28;19904;-76
2021/11/13 07:47:37;;;;;;;;;;;;;;;;;;5112535;28;19919;-76
2021/11/13 07:50:02;;;;;;;;;;;;;;;;;;5112451;28;19900;-76
2021/11/13 07:52:27;;;;;;;;;;;;;;;;;;5129985;27;19995;-75
2021/11/13 07:54:53;;;;;;;;;;;;;;;;;;5112315;28;19900;-78
2021/11/13 07:57:18;;;;;;;;;;;;;;;;;;5112277;28;19912;-78
2021/11/13 07:59:43;;;;;;;;;;;;;;;;;;5111467;28;19921;-76
2021/11/13 08:02:08;;;;;;;;;;;;;;;;;;5095526;28;19914;-76
2021/11/13 08:04:33;;;;;;;;;;;;;;;;;;5112648;28;19900;-76
2021/11/13 08:06:59;;;;;;;;;;;;;;;;;;5109558;28;19912;-75
2021/11/13 08:09:24;;;;;;;;;;;;;;;;;;5113257;28;19910;-75
2021/11/13 08:11:49;;;;;;;;;;;;;;;;;;5111994;28;19940;-76
2021/11/13 08:14:14;;;;;;;;;;;;;;;;;;5109695;28;19938;-76
2021/11/13 08:16:40;;;;;;;;;;;;;;;;;;5111514;28;19900;-76
2021/11/13 08:19:08;;;;;;;;;;;;;;;;;;5095341;28;19915;-76
2021/11/13 08:21:33;;;;;;;;;;;;;;;;;;5113491;28;19905;-77
2021/11/13 08:23:59;;;;;;;;;;;;;;;;;;5112306;28;19935;-76
2021/11/13 08:26:24;;;;;;;;;;;;;;;;;;5111617;28;19928;-77
2021/11/13 08:28:49;;;;;;;;;;;;;;;;;;5111559;28;19900;-77
2021/11/13 08:31:14;;;;;;;;;;;;;;;;;;5111048;28;19900;-77
2021/11/13 08:33:40;;;;;;;;;;;;;;;;;;5110591;28;19936;-78
2021/11/13 08:36:05;;;;;;;;;;;;;;;;;;5107575;28;19908;-78
2021/11/13 08:38:30;;;;;;;;;;;;;;;;;;5112642;28;19919;-77
2021/11/13 08:40:56;;;;;;;;;;;;;;;;;;5112277;28;19900;-76
2021/11/13 08:43:21;;;;;;;;;;;;;;;;;;5111389;28;19907;-76
2021/11/13 08:45:46;;;;;;;;;;;;;;;;;;5112505;28;19911;-76
2021/11/13 08:48:11;;;;;;;;;;;;;;;;;;5110878;28;19951;-76
2021/11/13 08:50:39;;;;;;;;;;;;;;;;;;5112521;28;19916;-76
2021/11/13 08:53:04;;;;;;;;;;;;;;;;;;5114205;28;19914;-76
2021/11/13 08:55:29;;;;;;;;;;;;;;;;;;5112813;28;19896;-76
2021/11/13 08:57:55;;;;;;;;;;;;;;;;;;5104062;28;19963;-76
2021/11/13 09:00:20;;;;;;;;;;;;;;;;;;5100275;28;19923;-77
2021/11/13 09:02:45;;;;;;;;;;;;;;;;;;5111271;28;19904;-77
2021/11/13 09:05:10;;;;;;;;;;;;;;;;;;5104744;28;19915;-76
2021/11/13 09:07:36;;;;;;;;;;;;;;;;;;5105577;28;20132;-76
2021/11/13 09:10:01;;;;;;;;;;;;;;;;;;5094037;28;19969;-76
2021/11/13 09:12:27;;;;;;;;;;;;;;;;;;5124015;28;19932;-77
2021/11/13 09:14:54;;;;;;;;;;;;;;;;;;5111211;28;19901;-76
2021/11/13 09:17:23;;;;;;;;;;;;;;;;;;5103739;28;20193;-75
2021/11/13 09:19:48;;;;;;;;;;;;;;;;;;5106784;28;19900;-76
2021/11/13 09:22:13;;;;;;;;;;;;;;;;;;5110175;28;20050;-77
2021/11/13 09:24:38;;;;;;;;;;;;;;;;;;5104889;28;19908;-75
2021/11/13 09:27:04;;;;;;;;;;;;;;;;;;5109916;28;19899;-75
2021/11/13 09:29:29;;;;;;;;;;;;;;;;;;5103623;28;19908;-75
2021/11/13 09:31:55;;;;;;;;;;;;;;;;;;5103069;28;19911;-77
2021/11/13 09:34:20;;;;;;;;;;;;;;;;;;5109258;28;19926;-76
2021/11/13 09:36:45;;;;;;;;;;;;;;;;;;5118366;28;19956;-76
2021/11/13 09:39:10;;;;;;;;;;;;;;;;;;5110365;28;20065;-76
2021/11/13 09:41:35;;;;;;;;;;;;;;;;;;5087598;28;19908;-76
2021/11/13 09:44:01;;;;;;;;;;;;;;;;;;5108351;28;19906;-76
2021/11/13 09:46:26;;;;;;;;;;;;;;;;;;5111354;28;19900;-76
2021/11/13 09:48:52;;;;;;;;;;;;;;;;;;5107032;28;20007;-77
2021/11/13 09:51:19;;;;;;;;;;;;;;;;;;5115409;28;19954;-77
2021/11/13 09:53:44;;;;;;;;;;;;;;;;;;5109324;28;19914;-78
2021/11/13 09:56:10;;;;;;;;;;;;;;;;;;5110286;28;19916;-77
2021/11/13 09:58:35;;;;;;;;;;;;;;;;;;5112974;28;19958;-78
2021/11/13 10:01:00;;;;;;;;;;;;;;;;;;5109803;28;19915;-77
2021/11/13 10:03:26;;;;;;;;;;;;;;;;;;5115910;28;19900;-78
2021/11/13 10:05:51;;;;;;;;;;;;;;;;;;5108778;28;19946;-78
2021/11/13 10:08:16;;;;;;;;;;;;;;;;;;5110596;28;19915;-77
2021/11/13 10:10:41;;;;;;;;;;;;;;;;;;5114189;28;20093;-78
2021/11/13 10:13:06;;;;;;;;;;;;;;;;;;5108651;28;19911;-78
2021/11/13 10:15:32;;;;;;;;;;;;;;;;;;5115665;28;19899;-77
2021/11/13 10:17:57;;;;;;;;;;;;;;;;;;5125023;28;19912;-78
2021/11/13 10:20:22;;;;;;;;;;;;;;;;;;5110315;28;19923;-78
2021/11/13 10:22:47;;;;;;;;;;;;;;;;;;5115259;28;19908;-78
2021/11/13 10:25:12;;;;;;;;;;;;;;;;;;5108518;28;19900;-79
2021/11/13 10:27:38;;;;;;;;;;;;;;;;;;5114075;28;19918;-78
2021/11/13 10:30:03;;;;;;;;;;;;;;;;;;5110187;28;19926;-79
2021/11/13 10:32:28;;;;;;;;;;;;;;;;;;5109104;28;19955;-78
2021/11/13 10:34:54;;;;;;;;;;;;;;;;;;5115458;28;19901;-78
2021/11/13 10:37:19;;;;;;;;;;;;;;;;;;5113081;28;19908;-78
2021/11/13 10:39:44;;;;;;;;;;;;;;;;;;5130417;28;19983;-77
2021/11/13 10:42:11;;;;;;;;;;;;;;;;;;5107846;28;19904;-77
2021/11/13 10:44:37;;;;;;;;;;;;;;;;;;5109544;28;19900;-77
2021/11/13 10:47:02;;;;;;;;;;;;;;;;;;5112931;28;19968;-77
2021/11/13 10:49:28;;;;;;;;;;;;;;;;;;5108922;28;19933;-76
2021/11/13 10:51:53;;;;;;;;;;;;;;;;;;5113387;28;19911;-77
2021/11/13 10:54:19;;;;;;;;;;;;;;;;;;5108845;28;19938;-77
2021/11/13 10:56:44;;;;;;;;;;;;;;;;;;5109403;28;19975;-76
2021/11/13 10:59:09;;;;;;;;;;;;;;;;;;5114678;28;20281;-76
2021/11/13 11:01:35;;;;;;;;;;;;;;;;;;5102655;28;19908;-77
2021/11/13 11:04:00;;;;;;;;;;;;;;;;;;5111470;28;20003;-76
2021/11/13 11:06:25;;;;;;;;;;;;;;;;;;5107042;28;19964;-76
2021/11/13 11:08:50;;;;;;;;;;;;;;;;;;5090561;28;19914;-77
2021/11/13 11:11:16;;;;;;;;;;;;;;;;;;5113655;28;19931;-77
2021/11/13 11:13:41;;;;;;;;;;;;;;;;;;5088244;28;19936;-76
2021/11/13 11:16:06;;;;;;;;;;;;;;;;;;5113141;28;19911;-77
2021/11/13 11:18:31;;;;;;;;;;;;;;;;;;5107989;28;20122;-78
2021/11/13 11:20:57;;;;;;;;;;;;;;;;;;5107053;28;19900;-77
2021/11/13 11:23:22;;;;;;;;;;;;;;;;;;5113871;28;19907;-78
2021/11/13 11:25:47;;;;;;;;;;;;;;;;;;5106998;28;19908;-78
2021/11/13 11:28:12;;;;;;;;;;;;;;;;;;5113047;28;19908;-77
2021/11/13 11:30:37;;;;;;;;;;;;;;;;;;5109024;28;19967;-77
2021/11/13 11:33:07;;;;;;;;;;;;;;;;;;5108163;28;19900;-78
2021/11/13 11:35:36;;;;;;;;;;;;;;;;;;5113357;28;19915;-77
2021/11/13 11:38:06;;;;;;;;;;;;;;;;;;5108127;28;19979;-78
2021/11/13 11:40:31;;;;;;;;;;;;;;;;;;5113325;28;19900;-77
2021/11/13 11:42:58;;;;;;;;;;;;;;;;;;5107023;28;19993;-77
2021/11/13 11:45:23;;;;;;;;;;;;;;;;;;5108644;28;19900;-78
2021/11/13 11:47:48;;;;;;;;;;;;;;;;;;5113588;28;19919;-77
2021/11/13 11:50:14;;;;;;;;;;;;;;;;;;5105298;28;19911;-79
2021/11/13 11:52:44;;;;;;;;;;;;;;;;;;5112682;28;19912;-76
2021/11/13 11:55:09;;;;;;;;;;;;;;;;;;5107588;28;19904;-76
2021/11/13 11:57:34;;;;;;;;;;;;;;;;;;5106968;28;19918;-77
2021/11/13 11:59:59;;;;;;;;;;;;;;;;;;5111515;28;19912;-78
2021/11/13 12:02:24;;;;;;;;;;;;;;;;;;5106431;28;20230;-78
2021/11/13 12:04:50;;;;;;;;;;;;;;;;;;5110863;28;19900;-78
2021/11/13 12:07:15;;;;;;;;;;;;;;;;;;5107047;28;19900;-78
2021/11/13 12:09:40;;;;;;;;;;;;;;;;;;5106333;28;19912;-78
2021/11/13 12:12:06;;;;;;;;;;;;;;;;;;5094647;28;19900;-78
2021/11/13 12:14:36;;;;;;;;;;;;;;;;;;5103445;28;19919;-78
2021/11/13 12:17:02;;;;;;;;;;;;;;;;;;5109260;28;19911;-77
2021/11/13 12:19:27;;;;;;;;;;;;;;;;;;5090728;28;19908;-76
2021/11/13 12:21:52;;;;;;;;;;;;;;;;;;5104250;28;19964;-76
2021/11/13 12:24:17;;;;;;;;;;;;;;;;;;5112056;28;19911;-77
2021/11/13 12:26:44;;;;;;;;;;;;;;;;;;5106901;28;19923;-78
2021/11/13 12:29:12;;;;;;;;;;;;;;;;;;5105261;28;19919;-78
2021/11/13 12:31:37;;;;;;;;;;;;;;;;;;5112701;28;19932;-78
2021/11/13 12:34:03;;;;;;;;;;;;;;;;;;5104920;28;19908;-74
2021/11/13 12:36:28;;;;;;;;;;;;;;;;;;5110724;28;19919;-80
2021/11/13 12:38:54;;;;;;;;;;;;;;;;;;5104847;28;19912;-78
2021/11/13 12:41:19;;;;;;;;;;;;;;;;;;5101860;28;19915;-75
2021/11/13 12:43:44;;;;;;;;;;;;;;;;;;5108118;28;19908;-76
2021/11/13 12:46:09;;;;;;;;;;;;;;;;;;5108188;28;19916;-76
2021/11/13 12:48:35;;;;;;;;;;;;;;;;;;5106921;28;19901;-78
2021/11/13 12:51:00;;;;;;;;;;;;;;;;;;5106049;28;19970;-76
2021/11/13 12:53:25;;;;;;;;;;;;;;;;;;5109744;28;19916;-76
2021/11/13 12:55:50;;;;;;;;;;;;;;;;;;5109912;28;20131;-75
2021/11/13 12:58:17;;;;;;;;;;;;;;;;;;5111480;28;20141;-76
2021/11/13 17:01:57;;;;;;;;;;;;;;;;;;5868213;23;19930;-66
2021/11/13 17:04:22;;;;;;;;;;;;;;;;;;4973717;28;20362;-68
2021/11/13 17:06:50;;;;;;;;;;;;;;;;;;4974280;28;19976;-68
2021/11/13 17:09:16;;;;;;;;;;;;;;;;;;4973029;28;20297;-68
2021/11/13 17:11:42;;;;;;;;;;;;;;;;;;4952052;28;19918;-70
2021/11/13 17:14:07;;;;;;;;;;;;;;;;;;4971822;28;19918;-71
2021/11/13 17:16:37;;;;;;;;;;;;;;;;;;4970779;28;19914;-66
2021/11/13 17:19:02;;;;;;;;;;;;;;;;;;4971672;28;19949;-66
2021/11/13 17:21:28;;;;;;;;;;;;;;;;;;4974045;28;19922;-67
2021/11/13 17:23:53;;;;;;;;;;;;;;;;;;4972425;28;19921;-68
2021/11/13 17:26:18;;;;;;;;;;;;;;;;;;4962735;28;19917;-67
2021/11/13 17:28:43;;;;;;;;;;;;;;;;;;4973687;28;19920;-65
2021/11/13 17:31:09;;;;;;;;;;;;;;;;;;4952777;28;19918;-66
2021/11/13 17:33:34;;;;;;;;;;;;;;;;;;4975402;28;19918;-66
2021/11/13 17:35:59;;;;;;;;;;;;;;;;;;4971195;28;19976;-68
2021/11/13 17:38:24;;;;;;;;;;;;;;;;;;4970807;28;19934;-67
2021/11/13 17:40:49;;;;;;;;;;;;;;;;;;4972524;28;20499;-69
2021/11/13 17:43:15;;;;;;;;;;;;;;;;;;4972521;28;20778;-68
2021/11/13 17:45:40;;;;;;;;;;;;;;;;;;4973467;28;19929;-66
2021/11/13 17:48:05;;;;;;;;;;;;;;;;;;4977042;28;20017;-67
2021/11/13 17:50:32;;;;;;;;;;;;;;;;;;4972495;28;20024;-66
2021/11/13 17:52:58;;;;;;;;;;;;;;;;;;4971115;28;19949;-69
2021/11/13 17:55:23;;;;;;;;;;;;;;;;;;4971978;28;20469;-66
2021/11/13 17:57:48;;;;;;;;;;;;;;;;;;4971722;28;20353;-66
2021/11/13 18:00:13;;;;;;;;;;;;;;;;;;4972776;28;19929;-66
2021/11/13 18:02:39;;;;;;;;;;;;;;;;;;4950648;28;19926;-66
2021/11/13 18:05:04;;;;;;;;;;;;;;;;;;4956896;28;19924;-68
2021/11/13 18:07:29;;;;;;;;;;;;;;;;;;4958080;28;20334;-66
2021/11/13 18:09:55;;;;;;;;;;;;;;;;;;4953616;28;20509;-69
2021/11/13 18:12:20;;;;;;;;;;;;;;;;;;4954882;28;20020;-66
2021/11/13 18:14:46;;;;;;;;;;;;;;;;;;4954878;28;19969;-65
2021/11/13 18:17:11;;;;;;;;;;;;;;;;;;4956457;28;19998;-65
2021/11/13 18:19:37;;;;;;;;;;;;;;;;;;4957134;28;20414;-68
2021/11/13 18:22:02;;;;;;;;;;;;;;;;;;4940551;28;20291;-70
2021/11/13 18:24:27;;;;;;;;;;;;;;;;;;4954248;28;19964;-67
2021/11/13 18:26:52;;;;;;;;;;;;;;;;;;4954636;28;20069;-69
2021/11/13 18:29:18;;;;;;;;;;;;;;;;;;4954786;28;20008;-67
2021/11/13 18:31:43;;;;;;;;;;;;;;;;;;4956402;28;20279;-68
2021/11/13 18:34:08;;;;;;;;;;;;;;;;;;4940706;28;19918;-68
2021/11/13 18:36:35;;;;;;;;;;;;;;;;;;4957213;28;19922;-67
2021/11/13 18:39:00;;;;;;;;;;;;;;;;;;4948216;28;19929;-67
2021/11/13 18:41:25;;;;;;;;;;;;;;;;;;4957260;28;19937;-65
2021/11/13 18:43:50;;;;;;;;;;;;;;;;;;4960494;28;19926;-67
2021/11/13 18:46:15;;;;;;;;;;;;;;;;;;4931491;28;19953;-66
2021/11/13 18:48:41;;;;;;;;;;;;;;;;;;4957125;28;19922;-65
2021/11/13 18:51:06;;;;;;;;;;;;;;;;;;4958482;28;19980;-65
2021/11/13 18:53:31;;;;;;;;;;;;;;;;;;4957162;28;19930;-65
2021/11/13 18:55:56;;;;;;;;;;;;;;;;;;4941116;28;20379;-69
2021/11/13 18:58:22;;;;;;;;;;;;;;;;;;4943015;28;19926;-64
2021/11/13 19:00:47;;;;;;;;;;;;;;;;;;4940599;28;19937;-63
2021/11/13 19:03:12;;;;;;;;;;;;;;;;;;4969948;28;19922;-66
2021/11/13 19:05:37;;;;;;;;;;;;;;;;;;4976526;28;19918;-66
2021/11/13 19:08:02;;;;;;;;;;;;;;;;;;4975533;28;19965;-65
2021/11/13 19:10:28;;;;;;;;;;;;;;;;;;4976627;28;19918;-66
2021/11/13 19:12:53;;;;;;;;;;;;;;;;;;4962927;28;20309;-64
2021/11/13 19:15:18;;;;;;;;;;;;;;;;;;4968811;28;20334;-64
2021/11/13 19:17:43;;;;;;;;;;;;;;;;;;4974975;28;20369;-64
2021/11/13 19:20:09;;;;;;;;;;;;;;;;;;4976768;28;20013;-64
2021/11/13 19:22:34;;;;;;;;;;;;;;;;;;4980759;28;20341;-66
2021/11/13 19:24:59;;;;;;;;;;;;;;;;;;4976022;28;19925;-64
2021/11/13 19:27:24;;;;;;;;;;;;;;;;;;4961045;28;19919;-64
2021/11/13 19:29:49;;;;;;;;;;;;;;;;;;4974721;28;19914;-64
2021/11/13 19:32:15;;;;;;;;;;;;;;;;;;4974894;28;20004;-67
2021/11/13 19:34:40;;;;;;;;;;;;;;;;;;4975849;28;19961;-64
2021/11/13 19:37:05;;;;;;;;;;;;;;;;;;4977374;28;19925;-66
2021/11/13 19:39:31;;;;;;;;;;;;;;;;;;4957827;28;19928;-68
2021/11/13 19:41:56;;;;;;;;;;;;;;;;;;4962826;28;19948;-67
2021/11/13 19:44:21;;;;;;;;;;;;;;;;;;4945220;28;19922;-71
2021/11/13 19:46:46;;;;;;;;;;;;;;;;;;4965685;28;19920;-66
2021/11/13 19:49:12;;;;;;;;;;;;;;;;;;4976572;28;20297;-67
2021/11/13 19:51:37;;;;;;;;;;;;;;;;;;4994794;28;20258;-69
2021/11/13 19:54:02;;;;;;;;;;;;;;;;;;4996354;28;20319;-69
2021/11/13 19:56:27;;;;;;;;;;;;;;;;;;4991104;28;20016;-66
2021/11/13 19:58:53;;;;;;;;;;;;;;;;;;4995632;28;19928;-69
2021/11/13 20:01:18;;;;;;;;;;;;;;;;;;4992934;28;19953;-66
2021/11/13 20:03:45;;;;;;;;;;;;;;;;;;4994868;28;19928;-67
2021/11/13 20:06:10;;;;;;;;;;;;;;;;;;4992421;28;20270;-66
2021/11/13 20:08:35;;;;;;;;;;;;;;;;;;4995127;28;19924;-66
2021/11/13 20:11:01;;;;;;;;;;;;;;;;;;4992908;28;19929;-67
2021/11/13 20:13:27;;;;;;;;;;;;;;;;;;4993927;28;19960;-67
2021/11/13 20:15:52;;;;;;;;;;;;;;;;;;4996691;28;19924;-67
2021/11/13 20:18:18;;;;;;;;;;;;;;;;;;4993521;28;20301;-66
2021/11/13 20:20:43;;;;;;;;;;;;;;;;;;4993177;28;19928;-68
2021/11/13 20:23:08;;;;;;;;;;;;;;;;;;4994423;28;19918;-65
2021/11/13 20:25:33;;;;;;;;;;;;;;;;;;4996600;28;19921;-70
2021/11/13 20:27:58;;;;;;;;;;;;;;;;;;4994153;28;19956;-67
2021/11/13 20:30:24;;;;;;;;;;;;;;;;;;4995145;28;19929;-68
2021/11/13 20:32:49;;;;;;;;;;;;;;;;;;4993062;28;19963;-68
2021/11/13 20:35:14;;;;;;;;;;;;;;;;;;4978504;28;19917;-67